sensor_id;sensor_type;location;lat;lon;timestamp;temperature;humidity
44537;DHT22;30245;51.966;6.292;2022-07-17T00:00:13;22.00;43.00
44537;DHT22;30245;51.966;6.292;2022-07-17T00:02:39;22.00;43.10
44537;DHT22;30245;51.966;6.292;2022-07-17T00:05:06;21.90;43.30
44537;DHT22;30245;51.966;6.292;2022-07-17T00:07:31;21.90;43.40
44537;DHT22;30245;51.966;6.292;2022-07-17T00:09:57;21.80;43.50
44537;DHT22;30245;51.966;6.292;2022-07-17T00:12:23;21.90;43.60
44537;DHT22;30245;51.966;6.292;2022-07-17T00:14:48;21.80;43.60
44537;DHT22;30245;51.966;6.292;2022-07-17T00:17:14;21.80;43.70
44537;DHT22;30245;51.966;6.292;2022-07-17T00:19:40;21.80;43.80
44537;DHT22;30245;51.966;6.292;2022-07-17T00:22:06;21.70;43.80
44537;DHT22;30245;51.966;6.292;2022-07-17T00:24:32;21.70;43.90
44537;DHT22;30245;51.966;6.292;2022-07-17T00:26:58;21.70;43.90
44537;DHT22;30245;51.966;6.292;2022-07-17T00:29:24;21.70;44.00
44537;DHT22;30245;51.966;6.292;2022-07-17T00:31:50;21.70;44.10
44537;DHT22;30245;51.966;6.292;2022-07-17T00:34:15;21.70;44.20
44537;DHT22;30245;51.966;6.292;2022-07-17T00:36:41;21.70;44.30
44537;DHT22;30245;51.966;6.292;2022-07-17T00:39:08;21.60;44.30
44537;DHT22;30245;51.966;6.292;2022-07-17T00:41:34;21.60;44.40
44537;DHT22;30245;51.966;6.292;2022-07-17T00:44:07;21.50;44.50
44537;DHT22;30245;51.966;6.292;2022-07-17T00:46:33;21.50;44.60
44537;DHT22;30245;51.966;6.292;2022-07-17T00:48:59;21.50;44.60
44537;DHT22;30245;51.966;6.292;2022-07-17T00:51:25;21.50;44.70
44537;DHT22;30245;51.966;6.292;2022-07-17T00:53:52;21.40;44.80
44537;DHT22;30245;51.966;6.292;2022-07-17T00:56:19;21.40;44.90
44537;DHT22;30245;51.966;6.292;2022-07-17T00:58:48;21.40;45.00
44537;DHT22;30245;51.966;6.292;2022-07-17T01:01:14;21.30;45.00
44537;DHT22;30245;51.966;6.292;2022-07-17T01:03:39;21.30;44.80
44537;DHT22;30245;51.966;6.292;2022-07-17T01:06:05;21.30;44.80
44537;DHT22;30245;51.966;6.292;2022-07-17T01:08:32;21.30;44.90
44537;DHT22;30245;51.966;6.292;2022-07-17T01:10:57;21.20;45.00
44537;DHT22;30245;51.966;6.292;2022-07-17T01:13:23;21.20;45.10
44537;DHT22;30245;51.966;6.292;2022-07-17T01:15:49;21.20;45.20
44537;DHT22;30245;51.966;6.292;2022-07-17T01:18:15;21.20;45.30
44537;DHT22;30245;51.966;6.292;2022-07-17T01:20:44;21.10;45.30
44537;DHT22;30245;51.966;6.292;2022-07-17T01:23:10;21.10;45.40
44537;DHT22;30245;51.966;6.292;2022-07-17T01:25:36;21.00;45.40
44537;DHT22;30245;51.966;6.292;2022-07-17T01:28:03;21.00;45.50
44537;DHT22;30245;51.966;6.292;2022-07-17T01:30:29;21.00;45.60
44537;DHT22;30245;51.966;6.292;2022-07-17T01:32:55;20.90;45.70
44537;DHT22;30245;51.966;6.292;2022-07-17T01:35:21;20.90;45.80
44537;DHT22;30245;51.966;6.292;2022-07-17T01:37:47;20.90;45.90
44537;DHT22;30245;51.966;6.292;2022-07-17T01:40:15;20.90;46.00
44537;DHT22;30245;51.966;6.292;2022-07-17T01:42:46;20.80;46.00
44537;DHT22;30245;51.966;6.292;2022-07-17T01:45:13;20.80;46.00
44537;DHT22;30245;51.966;6.292;2022-07-17T01:47:39;20.80;46.00
44537;DHT22;30245;51.966;6.292;2022-07-17T01:50:06;20.80;46.00
44537;DHT22;30245;51.966;6.292;2022-07-17T01:52:35;20.80;46.10
44537;DHT22;30245;51.966;6.292;2022-07-17T01:55:04;20.80;46.20
44537;DHT22;30245;51.966;6.292;2022-07-17T01:57:29;20.70;46.20
44537;DHT22;30245;51.966;6.292;2022-07-17T01:59:55;20.70;46.20
44537;DHT22;30245;51.966;6.292;2022-07-17T02:02:21;20.70;46.30
44537;DHT22;30245;51.966;6.292;2022-07-17T02:04:47;20.70;46.30
44537;DHT22;30245;51.966;6.292;2022-07-17T02:07:12;20.60;46.30
44537;DHT22;30245;51.966;6.292;2022-07-17T02:09:38;20.60;46.40
44537;DHT22;30245;51.966;6.292;2022-07-17T02:12:04;20.60;46.40
44537;DHT22;30245;51.966;6.292;2022-07-17T02:14:30;20.60;46.50
44537;DHT22;30245;51.966;6.292;2022-07-17T02:16:56;20.60;46.60
44537;DHT22;30245;51.966;6.292;2022-07-17T02:19:22;20.60;46.60
44537;DHT22;30245;51.966;6.292;2022-07-17T02:21:47;20.50;46.70
44537;DHT22;30245;51.966;6.292;2022-07-17T02:24:13;20.40;46.70
44537;DHT22;30245;51.966;6.292;2022-07-17T02:26:39;20.40;46.90
44537;DHT22;30245;51.966;6.292;2022-07-17T02:29:05;20.30;47.00
44537;DHT22;30245;51.966;6.292;2022-07-17T02:31:31;20.20;47.10
44537;DHT22;30245;51.966;6.292;2022-07-17T02:33:57;20.20;47.30
44537;DHT22;30245;51.966;6.292;2022-07-17T02:36:23;20.20;47.30
44537;DHT22;30245;51.966;6.292;2022-07-17T02:38:48;20.20;47.30
44537;DHT22;30245;51.966;6.292;2022-07-17T02:41:14;20.30;47.30
44537;DHT22;30245;51.966;6.292;2022-07-17T02:43:41;20.30;47.30
44537;DHT22;30245;51.966;6.292;2022-07-17T02:46:07;20.20;47.30
44537;DHT22;30245;51.966;6.292;2022-07-17T02:48:33;20.20;47.40
44537;DHT22;30245;51.966;6.292;2022-07-17T02:50:58;20.20;47.50
44537;DHT22;30245;51.966;6.292;2022-07-17T02:53:24;20.20;47.50
44537;DHT22;30245;51.966;6.292;2022-07-17T02:55:50;20.20;47.60
44537;DHT22;30245;51.966;6.292;2022-07-17T02:58:16;20.20;47.60
44537;DHT22;30245;51.966;6.292;2022-07-17T03:00:41;20.20;47.60
44537;DHT22;30245;51.966;6.292;2022-07-17T03:03:07;20.20;47.60
44537;DHT22;30245;51.966;6.292;2022-07-17T03:05:33;20.10;47.60
44537;DHT22;30245;51.966;6.292;2022-07-17T03:07:58;20.10;47.70
44537;DHT22;30245;51.966;6.292;2022-07-17T03:10:24;20.10;47.70
44537;DHT22;30245;51.966;6.292;2022-07-17T03:12:49;20.10;47.70
44537;DHT22;30245;51.966;6.292;2022-07-17T03:15:15;20.10;47.80
44537;DHT22;30245;51.966;6.292;2022-07-17T03:17:41;20.10;47.80
44537;DHT22;30245;51.966;6.292;2022-07-17T03:20:08;20.00;47.80
44537;DHT22;30245;51.966;6.292;2022-07-17T03:22:34;20.00;47.80
44537;DHT22;30245;51.966;6.292;2022-07-17T03:25:00;20.00;47.90
44537;DHT22;30245;51.966;6.292;2022-07-17T03:27:26;19.90;48.00
44537;DHT22;30245;51.966;6.292;2022-07-17T03:29:53;19.90;48.00
44537;DHT22;30245;51.966;6.292;2022-07-17T03:32:19;19.90;48.10
44537;DHT22;30245;51.966;6.292;2022-07-17T03:34:45;19.80;48.00
44537;DHT22;30245;51.966;6.292;2022-07-17T03:37:11;19.80;48.20
44537;DHT22;30245;51.966;6.292;2022-07-17T03:39:36;19.70;48.30
44537;DHT22;30245;51.966;6.292;2022-07-17T03:42:02;19.70;48.30
44537;DHT22;30245;51.966;6.292;2022-07-17T03:44:28;19.70;48.40
44537;DHT22;30245;51.966;6.292;2022-07-17T03:46:53;19.70;48.40
44537;DHT22;30245;51.966;6.292;2022-07-17T03:49:19;19.70;48.40
44537;DHT22;30245;51.966;6.292;2022-07-17T03:51:45;19.70;48.50
44537;DHT22;30245;51.966;6.292;2022-07-17T03:54:10;19.70;48.50
44537;DHT22;30245;51.966;6.292;2022-07-17T03:56:36;19.70;48.50
44537;DHT22;30245;51.966;6.292;2022-07-17T03:59:02;19.70;48.40
44537;DHT22;30245;51.966;6.292;2022-07-17T04:01:27;19.80;48.50
44537;DHT22;30245;51.966;6.292;2022-07-17T04:03:53;19.80;48.40
44537;DHT22;30245;51.966;6.292;2022-07-17T04:06:19;19.80;48.30
44537;DHT22;30245;51.966;6.292;2022-07-17T04:08:44;19.80;48.30
44537;DHT22;30245;51.966;6.292;2022-07-17T04:11:10;19.70;48.30
44537;DHT22;30245;51.966;6.292;2022-07-17T04:13:36;19.70;48.30
44537;DHT22;30245;51.966;6.292;2022-07-17T04:16:01;19.70;48.40
44537;DHT22;30245;51.966;6.292;2022-07-17T04:18:29;19.80;48.40
44537;DHT22;30245;51.966;6.292;2022-07-17T04:20:58;19.80;48.40
44537;DHT22;30245;51.966;6.292;2022-07-17T04:23:23;19.80;48.40
44537;DHT22;30245;51.966;6.292;2022-07-17T04:25:49;19.80;48.30
44537;DHT22;30245;51.966;6.292;2022-07-17T04:28:15;19.80;48.20
44537;DHT22;30245;51.966;6.292;2022-07-17T04:30:41;19.80;48.30
44537;DHT22;30245;51.966;6.292;2022-07-17T04:33:07;19.70;48.40
44537;DHT22;30245;51.966;6.292;2022-07-17T04:35:33;19.70;48.50
44537;DHT22;30245;51.966;6.292;2022-07-17T04:37:59;19.70;48.70
44537;DHT22;30245;51.966;6.292;2022-07-17T04:40:25;19.60;48.70
44537;DHT22;30245;51.966;6.292;2022-07-17T04:42:50;19.70;48.80
44537;DHT22;30245;51.966;6.292;2022-07-17T04:45:16;19.70;48.80
44537;DHT22;30245;51.966;6.292;2022-07-17T04:47:42;19.70;48.70
44537;DHT22;30245;51.966;6.292;2022-07-17T04:50:08;19.70;48.70
44537;DHT22;30245;51.966;6.292;2022-07-17T04:52:34;19.70;48.70
44537;DHT22;30245;51.966;6.292;2022-07-17T04:55:00;19.70;48.70
44537;DHT22;30245;51.966;6.292;2022-07-17T04:57:26;19.80;48.70
44537;DHT22;30245;51.966;6.292;2022-07-17T04:59:51;19.80;48.70
44537;DHT22;30245;51.966;6.292;2022-07-17T05:02:17;19.80;48.70
44537;DHT22;30245;51.966;6.292;2022-07-17T05:04:43;19.90;48.60
44537;DHT22;30245;51.966;6.292;2022-07-17T05:07:08;19.90;48.60
44537;DHT22;30245;51.966;6.292;2022-07-17T05:09:34;19.90;48.50
44537;DHT22;30245;51.966;6.292;2022-07-17T05:12:00;19.90;48.50
44537;DHT22;30245;51.966;6.292;2022-07-17T05:14:25;19.90;48.60
44537;DHT22;30245;51.966;6.292;2022-07-17T05:16:51;19.90;48.50
44537;DHT22;30245;51.966;6.292;2022-07-17T05:19:17;20.00;48.40
44537;DHT22;30245;51.966;6.292;2022-07-17T05:21:42;20.10;48.50
44537;DHT22;30245;51.966;6.292;2022-07-17T05:24:08;20.10;48.50
44537;DHT22;30245;51.966;6.292;2022-07-17T05:26:34;20.10;48.40
44537;DHT22;30245;51.966;6.292;2022-07-17T05:28:59;20.10;48.40
44537;DHT22;30245;51.966;6.292;2022-07-17T05:31:25;20.10;48.40
44537;DHT22;30245;51.966;6.292;2022-07-17T05:33:51;20.10;48.50
44537;DHT22;30245;51.966;6.292;2022-07-17T05:36:16;20.10;48.50
44537;DHT22;30245;51.966;6.292;2022-07-17T05:38:42;20.20;48.50
44537;DHT22;30245;51.966;6.292;2022-07-17T05:41:07;20.20;48.40
44537;DHT22;30245;51.966;6.292;2022-07-17T05:43:33;20.20;48.40
44537;DHT22;30245;51.966;6.292;2022-07-17T05:45:59;20.20;48.40
44537;DHT22;30245;51.966;6.292;2022-07-17T05:48:25;20.20;48.50
44537;DHT22;30245;51.966;6.292;2022-07-17T05:50:51;20.30;48.50
44537;DHT22;30245;51.966;6.292;2022-07-17T05:53:17;20.30;48.40
44537;DHT22;30245;51.966;6.292;2022-07-17T05:55:43;20.30;48.40
44537;DHT22;30245;51.966;6.292;2022-07-17T05:58:08;20.30;48.40
44537;DHT22;30245;51.966;6.292;2022-07-17T06:00:35;20.40;48.40
44537;DHT22;30245;51.966;6.292;2022-07-17T06:03:02;20.50;48.40
44537;DHT22;30245;51.966;6.292;2022-07-17T06:05:28;20.50;48.20
44537;DHT22;30245;51.966;6.292;2022-07-17T06:07:54;20.60;48.20
44537;DHT22;30245;51.966;6.292;2022-07-17T06:10:20;20.70;48.20
44537;DHT22;30245;51.966;6.292;2022-07-17T06:12:45;20.80;48.10
44537;DHT22;30245;51.966;6.292;2022-07-17T06:15:11;20.80;47.90
44537;DHT22;30245;51.966;6.292;2022-07-17T06:17:37;20.80;48.00
44537;DHT22;30245;51.966;6.292;2022-07-17T06:20:03;20.80;48.20
44537;DHT22;30245;51.966;6.292;2022-07-17T06:22:29;20.90;48.20
44537;DHT22;30245;51.966;6.292;2022-07-17T06:24:55;20.90;48.10
44537;DHT22;30245;51.966;6.292;2022-07-17T06:27:20;21.00;48.10
44537;DHT22;30245;51.966;6.292;2022-07-17T06:29:46;21.10;48.10
44537;DHT22;30245;51.966;6.292;2022-07-17T06:32:12;21.10;48.00
44537;DHT22;30245;51.966;6.292;2022-07-17T06:34:38;21.20;48.00
44537;DHT22;30245;51.966;6.292;2022-07-17T06:37:04;21.20;48.00
44537;DHT22;30245;51.966;6.292;2022-07-17T06:39:30;21.30;48.00
44537;DHT22;30245;51.966;6.292;2022-07-17T06:41:55;21.40;48.00
44537;DHT22;30245;51.966;6.292;2022-07-17T06:44:21;21.40;48.00
44537;DHT22;30245;51.966;6.292;2022-07-17T06:46:47;21.50;48.00
44537;DHT22;30245;51.966;6.292;2022-07-17T06:49:12;21.50;47.90
44537;DHT22;30245;51.966;6.292;2022-07-17T06:51:38;21.50;47.90
44537;DHT22;30245;51.966;6.292;2022-07-17T06:54:04;21.60;48.00
44537;DHT22;30245;51.966;6.292;2022-07-17T06:56:29;21.70;48.00
44537;DHT22;30245;51.966;6.292;2022-07-17T06:58:55;21.70;47.80
44537;DHT22;30245;51.966;6.292;2022-07-17T07:01:21;21.80;47.70
44537;DHT22;30245;51.966;6.292;2022-07-17T07:03:46;22.00;47.60
44537;DHT22;30245;51.966;6.292;2022-07-17T07:06:12;22.00;47.40
44537;DHT22;30245;51.966;6.292;2022-07-17T07:08:38;22.10;47.30
44537;DHT22;30245;51.966;6.292;2022-07-17T07:11:03;22.20;47.10
44537;DHT22;30245;51.966;6.292;2022-07-17T07:13:29;22.20;46.80
44537;DHT22;30245;51.966;6.292;2022-07-17T07:15:55;22.20;46.80
44537;DHT22;30245;51.966;6.292;2022-07-17T07:18:21;22.30;46.80
44537;DHT22;30245;51.966;6.292;2022-07-17T07:20:47;22.40;46.70
44537;DHT22;30245;51.966;6.292;2022-07-17T07:23:13;22.40;46.60
44537;DHT22;30245;51.966;6.292;2022-07-17T07:25:38;22.60;46.50
44537;DHT22;30245;51.966;6.292;2022-07-17T07:28:04;22.70;46.30
44537;DHT22;30245;51.966;6.292;2022-07-17T07:30:31;22.80;46.10
44537;DHT22;30245;51.966;6.292;2022-07-17T07:32:56;22.80;45.70
44537;DHT22;30245;51.966;6.292;2022-07-17T07:35:22;22.90;45.50
44537;DHT22;30245;51.966;6.292;2022-07-17T07:37:48;22.90;45.20
44537;DHT22;30245;51.966;6.292;2022-07-17T07:40:14;23.00;45.10
44537;DHT22;30245;51.966;6.292;2022-07-17T07:42:40;23.00;45.10
44537;DHT22;30245;51.966;6.292;2022-07-17T07:45:06;23.10;44.60
44537;DHT22;30245;51.966;6.292;2022-07-17T07:47:32;23.10;44.50
44537;DHT22;30245;51.966;6.292;2022-07-17T07:49:57;23.20;44.30
44537;DHT22;30245;51.966;6.292;2022-07-17T07:52:23;23.30;44.00
44537;DHT22;30245;51.966;6.292;2022-07-17T07:54:49;23.30;43.60
44537;DHT22;30245;51.966;6.292;2022-07-17T07:57:14;23.40;43.30
44537;DHT22;30245;51.966;6.292;2022-07-17T07:59:40;23.50;43.10
44537;DHT22;30245;51.966;6.292;2022-07-17T08:02:06;23.50;43.00
44537;DHT22;30245;51.966;6.292;2022-07-17T08:04:32;23.60;43.10
44537;DHT22;30245;51.966;6.292;2022-07-17T08:06:58;23.60;43.00
44537;DHT22;30245;51.966;6.292;2022-07-17T08:09:24;23.70;42.80
44537;DHT22;30245;51.966;6.292;2022-07-17T08:11:49;23.70;42.70
44537;DHT22;30245;51.966;6.292;2022-07-17T08:14:15;23.80;42.60
44537;DHT22;30245;51.966;6.292;2022-07-17T08:16:41;23.90;42.50
44537;DHT22;30245;51.966;6.292;2022-07-17T08:19:06;23.90;42.40
44537;DHT22;30245;51.966;6.292;2022-07-17T08:21:32;23.90;42.40
44537;DHT22;30245;51.966;6.292;2022-07-17T08:23:58;24.00;42.30
44537;DHT22;30245;51.966;6.292;2022-07-17T08:26:23;24.00;42.20
44537;DHT22;30245;51.966;6.292;2022-07-17T08:28:49;24.10;42.20
44537;DHT22;30245;51.966;6.292;2022-07-17T08:31:15;24.20;42.10
44537;DHT22;30245;51.966;6.292;2022-07-17T08:33:41;24.30;41.80
44537;DHT22;30245;51.966;6.292;2022-07-17T08:36:06;24.40;41.60
44537;DHT22;30245;51.966;6.292;2022-07-17T08:38:33;24.60;41.50
44537;DHT22;30245;51.966;6.292;2022-07-17T08:40:58;24.70;41.20
44537;DHT22;30245;51.966;6.292;2022-07-17T08:43:24;24.70;41.00
44537;DHT22;30245;51.966;6.292;2022-07-17T08:45:51;24.80;40.80
44537;DHT22;30245;51.966;6.292;2022-07-17T08:48:18;25.00;40.60
44537;DHT22;30245;51.966;6.292;2022-07-17T08:50:45;25.00;40.40
44537;DHT22;30245;51.966;6.292;2022-07-17T08:53:11;25.10;40.40
44537;DHT22;30245;51.966;6.292;2022-07-17T08:55:37;25.20;40.40
44537;DHT22;30245;51.966;6.292;2022-07-17T08:58:03;25.30;40.30
44537;DHT22;30245;51.966;6.292;2022-07-17T09:00:32;25.30;40.20
44537;DHT22;30245;51.966;6.292;2022-07-17T09:03:00;25.30;40.20
44537;DHT22;30245;51.966;6.292;2022-07-17T09:05:29;25.30;40.20
44537;DHT22;30245;51.966;6.292;2022-07-17T09:07:56;25.30;40.30
44537;DHT22;30245;51.966;6.292;2022-07-17T09:10:41;25.40;40.10
44537;DHT22;30245;51.966;6.292;2022-07-17T09:15:59;25.40;39.80
44537;DHT22;30245;51.966;6.292;2022-07-17T09:18:45;25.40;39.70
44537;DHT22;30245;51.966;6.292;2022-07-17T09:21:17;25.40;39.60
44537;DHT22;30245;51.966;6.292;2022-07-17T09:23:44;25.40;39.70
44537;DHT22;30245;51.966;6.292;2022-07-17T09:26:09;25.50;39.70
44537;DHT22;30245;51.966;6.292;2022-07-17T09:28:47;25.60;39.50
44537;DHT22;30245;51.966;6.292;2022-07-17T09:31:27;25.60;39.30
44537;DHT22;30245;51.966;6.292;2022-07-17T09:33:53;25.80;39.20
44537;DHT22;30245;51.966;6.292;2022-07-17T09:36:18;25.90;39.00
44537;DHT22;30245;51.966;6.292;2022-07-17T09:38:44;26.00;38.90
44537;DHT22;30245;51.966;6.292;2022-07-17T09:41:18;26.00;38.70
44537;DHT22;30245;51.966;6.292;2022-07-17T09:43:53;26.20;38.70
44537;DHT22;30245;51.966;6.292;2022-07-17T09:46:20;26.30;38.40
44537;DHT22;30245;51.966;6.292;2022-07-17T09:48:49;26.40;38.20
44537;DHT22;30245;51.966;6.292;2022-07-17T09:54:00;26.60;37.70
44537;DHT22;30245;51.966;6.292;2022-07-17T09:56:29;26.70;37.50
44537;DHT22;30245;51.966;6.292;2022-07-17T09:59:06;26.80;37.30
44537;DHT22;30245;51.966;6.292;2022-07-17T10:01:33;26.90;37.20
44537;DHT22;30245;51.966;6.292;2022-07-17T10:03:59;27.10;37.10
44537;DHT22;30245;51.966;6.292;2022-07-17T10:06:25;27.20;36.70
44537;DHT22;30245;51.966;6.292;2022-07-17T10:08:52;27.20;36.40
44537;DHT22;30245;51.966;6.292;2022-07-17T10:11:20;27.30;36.40
44537;DHT22;30245;51.966;6.292;2022-07-17T10:13:49;27.40;36.30
44537;DHT22;30245;51.966;6.292;2022-07-17T10:16:25;27.40;36.00
44537;DHT22;30245;51.966;6.292;2022-07-17T10:18:51;27.60;35.80
44537;DHT22;30245;51.966;6.292;2022-07-17T10:21:21;27.70;35.60
44537;DHT22;30245;51.966;6.292;2022-07-17T10:24:05;27.90;35.30
44537;DHT22;30245;51.966;6.292;2022-07-17T10:26:41;28.10;34.90
44537;DHT22;30245;51.966;6.292;2022-07-17T10:32:01;28.30;34.40
44537;DHT22;30245;51.966;6.292;2022-07-17T10:35:08;28.30;34.30
44537;DHT22;30245;51.966;6.292;2022-07-17T10:40:21;28.60;34.00
44537;DHT22;30245;51.966;6.292;2022-07-17T10:43:00;28.70;33.90
44537;DHT22;30245;51.966;6.292;2022-07-17T10:48:06;29.00;33.70
44537;DHT22;30245;51.966;6.292;2022-07-17T10:53:33;29.30;33.30
44537;DHT22;30245;51.966;6.292;2022-07-17T10:56:08;29.40;33.10
44537;DHT22;30245;51.966;6.292;2022-07-17T10:58:40;29.60;32.90
44537;DHT22;30245;51.966;6.292;2022-07-17T11:01:16;29.70;32.70
44537;DHT22;30245;51.966;6.292;2022-07-17T11:03:43;29.90;32.30
44537;DHT22;30245;51.966;6.292;2022-07-17T11:06:25;30.00;31.50
44537;DHT22;30245;51.966;6.292;2022-07-17T11:11:40;30.20;31.40
44537;DHT22;30245;51.966;6.292;2022-07-17T11:14:13;30.40;31.30
44537;DHT22;30245;51.966;6.292;2022-07-17T11:16:52;30.30;31.00
44537;DHT22;30245;51.966;6.292;2022-07-17T11:19:29;30.50;31.50
44537;DHT22;30245;51.966;6.292;2022-07-17T11:21:59;30.60;31.50
44537;DHT22;30245;51.966;6.292;2022-07-17T11:24:37;30.70;31.60
44537;DHT22;30245;51.966;6.292;2022-07-17T11:27:03;30.90;31.60
44537;DHT22;30245;51.966;6.292;2022-07-17T11:29:39;31.00;31.50
44537;DHT22;30245;51.966;6.292;2022-07-17T11:32:06;31.10;30.80
44537;DHT22;30245;51.966;6.292;2022-07-17T11:34:32;31.30;30.60
44537;DHT22;30245;51.966;6.292;2022-07-17T11:37:02;31.50;30.30
44537;DHT22;30245;51.966;6.292;2022-07-17T11:42:03;31.80;30.00
44537;DHT22;30245;51.966;6.292;2022-07-17T11:44:29;32.00;29.90
44537;DHT22;30245;51.966;6.292;2022-07-17T11:46:55;32.30;29.80
44537;DHT22;30245;51.966;6.292;2022-07-17T11:49:40;32.40;29.40
44537;DHT22;30245;51.966;6.292;2022-07-17T11:52:17;32.50;29.50
44537;DHT22;30245;51.966;6.292;2022-07-17T11:54:51;32.60;29.10
44537;DHT22;30245;51.966;6.292;2022-07-17T11:57:18;32.70;29.00
44537;DHT22;30245;51.966;6.292;2022-07-17T11:59:45;32.80;28.90
44537;DHT22;30245;51.966;6.292;2022-07-17T12:02:13;32.90;28.80
44537;DHT22;30245;51.966;6.292;2022-07-17T12:04:53;32.90;28.70
44537;DHT22;30245;51.966;6.292;2022-07-17T12:07:21;33.00;28.60
44537;DHT22;30245;51.966;6.292;2022-07-17T12:09:48;33.20;28.60
44537;DHT22;30245;51.966;6.292;2022-07-17T12:12:22;33.30;28.30
44537;DHT22;30245;51.966;6.292;2022-07-17T12:14:58;33.40;28.20
44537;DHT22;30245;51.966;6.292;2022-07-17T12:17:26;33.50;28.00
44537;DHT22;30245;51.966;6.292;2022-07-17T12:20:03;33.50;27.70
44537;DHT22;30245;51.966;6.292;2022-07-17T12:22:29;33.60;27.70
44537;DHT22;30245;51.966;6.292;2022-07-17T12:24:56;33.70;27.60
44537;DHT22;30245;51.966;6.292;2022-07-17T12:27:22;33.80;27.50
44537;DHT22;30245;51.966;6.292;2022-07-17T12:29:49;33.90;27.60
44537;DHT22;30245;51.966;6.292;2022-07-17T12:32:16;33.80;27.60
44537;DHT22;30245;51.966;6.292;2022-07-17T12:34:45;33.80;27.70
44537;DHT22;30245;51.966;6.292;2022-07-17T12:37:14;33.80;27.60
44537;DHT22;30245;51.966;6.292;2022-07-17T12:39:41;33.90;27.40
44537;DHT22;30245;51.966;6.292;2022-07-17T12:42:07;33.80;27.30
44537;DHT22;30245;51.966;6.292;2022-07-17T12:44:33;33.90;27.40
44537;DHT22;30245;51.966;6.292;2022-07-17T12:46:59;34.00;27.30
44537;DHT22;30245;51.966;6.292;2022-07-17T12:49:24;34.10;27.30
44537;DHT22;30245;51.966;6.292;2022-07-17T12:51:51;34.00;27.10
44537;DHT22;30245;51.966;6.292;2022-07-17T12:54:17;34.00;27.00
44537;DHT22;30245;51.966;6.292;2022-07-17T12:56:43;34.00;27.00
44537;DHT22;30245;51.966;6.292;2022-07-17T12:59:08;34.10;27.20
44537;DHT22;30245;51.966;6.292;2022-07-17T13:01:35;34.20;27.20
44537;DHT22;30245;51.966;6.292;2022-07-17T13:04:01;34.20;27.30
44537;DHT22;30245;51.966;6.292;2022-07-17T13:06:27;34.30;27.20
44537;DHT22;30245;51.966;6.292;2022-07-17T13:08:52;34.40;27.10
44537;DHT22;30245;51.966;6.292;2022-07-17T13:11:18;34.40;27.10
44537;DHT22;30245;51.966;6.292;2022-07-17T13:13:44;34.60;27.10
44537;DHT22;30245;51.966;6.292;2022-07-17T13:16:09;34.60;26.90
44537;DHT22;30245;51.966;6.292;2022-07-17T13:18:37;34.80;26.90
44537;DHT22;30245;51.966;6.292;2022-07-17T13:21:03;34.90;26.80
44537;DHT22;30245;51.966;6.292;2022-07-17T13:23:29;34.90;26.30
44537;DHT22;30245;51.966;6.292;2022-07-17T13:25:54;34.90;26.40
44537;DHT22;30245;51.966;6.292;2022-07-17T13:28:20;34.90;26.90
44537;DHT22;30245;51.966;6.292;2022-07-17T13:30:46;35.00;26.30
44537;DHT22;30245;51.966;6.292;2022-07-17T13:33:12;35.10;26.10
44537;DHT22;30245;51.966;6.292;2022-07-17T13:35:37;35.20;26.10
44537;DHT22;30245;51.966;6.292;2022-07-17T13:38:03;35.40;26.20
44537;DHT22;30245;51.966;6.292;2022-07-17T13:40:30;35.50;26.10
44537;DHT22;30245;51.966;6.292;2022-07-17T13:42:56;35.70;26.20
44537;DHT22;30245;51.966;6.292;2022-07-17T13:45:23;35.90;26.10
44537;DHT22;30245;51.966;6.292;2022-07-17T13:47:48;36.10;26.00
44537;DHT22;30245;51.966;6.292;2022-07-17T13:50:14;36.20;26.10
44537;DHT22;30245;51.966;6.292;2022-07-17T13:52:40;36.30;26.00
44537;DHT22;30245;51.966;6.292;2022-07-17T13:55:07;36.40;25.90
44537;DHT22;30245;51.966;6.292;2022-07-17T13:57:33;36.40;26.00
44537;DHT22;30245;51.966;6.292;2022-07-17T13:59:58;36.50;25.90
44537;DHT22;30245;51.966;6.292;2022-07-17T14:02:26;36.80;25.80
44537;DHT22;30245;51.966;6.292;2022-07-17T14:04:53;36.90;25.80
44537;DHT22;30245;51.966;6.292;2022-07-17T14:07:19;37.00;25.70
44537;DHT22;30245;51.966;6.292;2022-07-17T14:09:44;37.10;25.60
44537;DHT22;30245;51.966;6.292;2022-07-17T14:12:10;37.00;25.50
44537;DHT22;30245;51.966;6.292;2022-07-17T14:14:36;36.80;25.40
44537;DHT22;30245;51.966;6.292;2022-07-17T14:17:01;36.60;25.30
44537;DHT22;30245;51.966;6.292;2022-07-17T14:19:27;36.50;25.10
44537;DHT22;30245;51.966;6.292;2022-07-17T14:21:53;36.40;25.00
44537;DHT22;30245;51.966;6.292;2022-07-17T14:24:18;36.50;24.90
44537;DHT22;30245;51.966;6.292;2022-07-17T14:26:44;36.70;24.70
44537;DHT22;30245;51.966;6.292;2022-07-17T14:29:12;36.90;24.60
44537;DHT22;30245;51.966;6.292;2022-07-17T14:31:38;37.10;24.70
44537;DHT22;30245;51.966;6.292;2022-07-17T14:34:04;37.40;24.60
44537;DHT22;30245;51.966;6.292;2022-07-17T14:36:29;37.50;24.50
44537;DHT22;30245;51.966;6.292;2022-07-17T14:38:55;37.60;24.60
44537;DHT22;30245;51.966;6.292;2022-07-17T14:41:21;37.70;24.30
44537;DHT22;30245;51.966;6.292;2022-07-17T14:43:47;38.00;24.30
44537;DHT22;30245;51.966;6.292;2022-07-17T14:46:13;38.40;24.10
44537;DHT22;30245;51.966;6.292;2022-07-17T14:48:38;38.70;23.80
44537;DHT22;30245;51.966;6.292;2022-07-17T14:51:04;38.80;24.20
44537;DHT22;30245;51.966;6.292;2022-07-17T14:53:30;39.10;23.60
44537;DHT22;30245;51.966;6.292;2022-07-17T14:55:55;39.40;23.50
44537;DHT22;30245;51.966;6.292;2022-07-17T14:58:21;39.50;23.40
44537;DHT22;30245;51.966;6.292;2022-07-17T15:00:47;39.60;23.40
44537;DHT22;30245;51.966;6.292;2022-07-17T15:03:12;39.70;23.20
44537;DHT22;30245;51.966;6.292;2022-07-17T15:05:38;39.80;23.20
44537;DHT22;30245;51.966;6.292;2022-07-17T15:08:04;39.80;23.20
44537;DHT22;30245;51.966;6.292;2022-07-17T15:10:30;39.70;23.20
44537;DHT22;30245;51.966;6.292;2022-07-17T15:12:56;39.70;23.80
44537;DHT22;30245;51.966;6.292;2022-07-17T15:15:21;39.80;23.20
44537;DHT22;30245;51.966;6.292;2022-07-17T15:17:47;40.00;23.10
44537;DHT22;30245;51.966;6.292;2022-07-17T15:20:12;40.20;23.10
44537;DHT22;30245;51.966;6.292;2022-07-17T15:22:38;40.30;23.00
44537;DHT22;30245;51.966;6.292;2022-07-17T15:25:04;40.10;22.90
44537;DHT22;30245;51.966;6.292;2022-07-17T15:27:30;39.90;22.90
44537;DHT22;30245;51.966;6.292;2022-07-17T15:29:55;39.70;23.10
44537;DHT22;30245;51.966;6.292;2022-07-17T15:32:21;39.60;23.20
44537;DHT22;30245;51.966;6.292;2022-07-17T15:34:47;39.70;23.10
44537;DHT22;30245;51.966;6.292;2022-07-17T15:37:12;39.80;22.90
44537;DHT22;30245;51.966;6.292;2022-07-17T15:39:38;39.90;22.70
44537;DHT22;30245;51.966;6.292;2022-07-17T15:42:04;40.00;22.50
44537;DHT22;30245;51.966;6.292;2022-07-17T15:44:29;39.90;22.40
44537;DHT22;30245;51.966;6.292;2022-07-17T15:46:55;39.70;22.50
44537;DHT22;30245;51.966;6.292;2022-07-17T15:49:21;39.60;22.80